Time;durP1;ratioP1;P1;durP2;ratioP2;P2;SDS_P1;SDS_P2;PMS_P1;PMS_P2;Temp;Humidity;BMP_temperature;BMP_pressure;BME280_temperature;BME280_humidity;BME280_pressure;Samples;Min_cycle;Max_cycle;Signal;HPM_P1;HPM_P2
2020/12/10 00:01:48;;;;;;;15.95;7.28;;;;;;;-5.34;48.19;102036.69;5016208;28;20030;-53
2020/12/10 00:04:14;;;;;;;18.92;9.25;;;;;;;-5.44;48.21;102048.66;5012447;28;20041;-52
2020/12/10 00:06:40;;;;;;;20.48;10.02;;;;;;;-5.59;48.69;102045.69;5013466;28;20150;-51
2020/12/10 00:09:06;;;;;;;16.45;8.27;;;;;;;-5.71;49.22;102047.19;5012425;28;20080;-54
2020/12/10 00:11:34;;;;;;;24.75;8.35;;;;;;;-5.53;48.66;102030.19;5016604;28;20037;-60
2020/12/10 00:14:00;;;;;;;20.65;9.00;;;;;;;-5.29;47.92;102049.84;5012795;28;20038;-52
2020/12/10 00:16:25;;;;;;;18.08;8.18;;;;;;;-5.66;47.44;101966.41;5023829;28;20558;-56
2020/12/10 00:18:51;;;;;;;21.88;7.93;;;;;;;-5.43;47.59;102011.25;5025965;28;20034;-50
2020/12/10 00:21:21;;;;;;;17.38;8.00;;;;;;;-5.28;47.56;102028.09;5012226;28;20060;-53
2020/12/10 00:23:47;;;;;;;20.75;9.38;;;;;;;-5.36;47.58;102036.63;5019688;28;20880;-53
2020/12/10 00:26:13;;;;;;;15.63;6.65;;;;;;;-5.52;47.59;102000.63;4991177;28;20038;-52
2020/12/10 00:28:39;;;;;;;17.00;7.72;;;;;;;-5.38;47.49;102006.13;5007725;28;20042;-53
2020/12/10 00:31:04;;;;;;;18.75;8.55;;;;;;;-5.81;47.51;101943.47;5011578;28;20052;-58
2020/12/10 00:33:30;;;;;;;10.70;5.55;;;;;;;-5.62;47.42;101952.56;5021229;28;20512;-52
2020/12/10 00:35:55;;;;;;;17.20;9.00;;;;;;;-5.41;47.42;102022.59;5011548;28;20133;-57
2020/12/10 00:38:21;;;;;;;18.95;7.80;;;;;;;-5.37;47.42;102016.59;5012730;28;20029;-55
2020/12/10 00:40:46;;;;;;;18.42;7.57;;;;;;;-5.41;47.24;102009.56;5011522;28;20087;-53
2020/12/10 00:43:12;;;;;;;18.02;8.23;;;;;;;-5.49;47.74;102017.22;4994330;28;20081;-54
2020/12/10 00:45:37;;;;;;;22.35;9.35;;;;;;;-5.49;47.49;102004.16;5011561;28;20038;-56
2020/12/10 00:48:03;;;;;;;13.40;6.40;;;;;;;-5.49;47.35;102001.56;5011481;28;20048;-59
2020/12/10 00:50:28;;;;;;;18.90;8.30;;;;;;;-5.44;47.17;102017.31;5012899;28;20041;-52
2020/12/10 00:52:54;;;;;;;17.63;8.75;;;;;;;-5.63;47.22;101996.03;5012228;28;20133;-57
2020/12/10 00:55:19;;;;;;;13.80;5.88;;;;;;;-5.84;47.15;101948.63;5011308;28;20402;-58
2020/12/10 00:57:46;;;;;;;22.58;9.50;;;;;;;-5.44;46.96;102017.31;5027170;28;20061;-56
2020/12/10 01:00:12;;;;;;;16.58;6.75;;;;;;;-5.70;47.55;101980.22;5039221;28;20042;-52
2020/12/10 01:02:37;;;;;;;14.60;7.18;;;;;;;-5.47;47.33;102014.66;5028146;28;20051;-56
2020/12/10 01:05:05;;;;;;;14.52;7.63;;;;;;;-5.53;47.19;102009.31;5031182;28;20462;-53
2020/12/10 01:07:31;;;;;;;17.20;7.93;;;;;;;-6.08;47.40;101931.59;5045427;28;20032;-57
2020/12/10 01:09:56;;;;;;;16.30;7.72;;;;;;;-5.60;47.64;102000.47;5030955;28;20073;-58
2020/12/10 01:12:22;;;;;;;16.63;8.23;;;;;;;-5.60;47.46;101994.34;5023870;28;20064;-58
2020/12/10 01:14:47;;;;;;;18.10;7.13;;;;;;;-5.52;47.39;101991.06;5030559;28;20041;-57
2020/12/10 01:17:13;;;;;;;18.73;7.72;;;;;;;-5.49;46.97;102000.69;5046981;28;20047;-57
2020/12/10 01:19:38;;;;;;;17.83;7.30;;;;;;;-5.64;47.43;101988.19;5030630;28;20396;-57
2020/12/10 01:22:04;;;;;;;18.02;8.77;;;;;;;-5.58;47.10;101990.03;5019795;28;20034;-55
2020/12/10 01:24:29;;;;;;;19.10;8.75;;;;;;;-5.68;47.55;101995.06;5029957;28;20396;-50
2020/12/10 01:26:54;;;;;;;16.35;8.10;;;;;;;-5.79;47.89;101992.22;5030753;28;20040;-52
2020/12/10 01:29:21;;;;;;;20.15;8.15;;;;;;;-5.74;48.08;101997.56;5030657;28;20129;-56
2020/12/10 01:31:50;;;;;;;16.27;8.40;;;;;;;-5.71;47.82;101979.34;5021952;28;20038;-53
2020/12/10 01:34:16;;;;;;;19.52;8.80;;;;;;;-5.96;47.75;101952.72;5024309;28;20049;-52
2020/12/10 01:36:41;;;;;;;19.17;8.43;;;;;;;-6.00;48.35;101963.94;5030570;28;20033;-54
2020/12/10 01:39:07;;;;;;;19.90;8.30;;;;;;;-5.80;48.05;101981.75;5014631;28;20044;-51
2020/12/10 01:41:34;;;;;;;18.45;8.52;;;;;;;-5.74;47.70;101973.19;5044336;28;20034;-58
2020/12/10 01:44:05;;;;;;;19.95;8.38;;;;;;;-5.88;48.36;101980.69;5026868;28;20439;-56
2020/12/10 01:46:32;;;;;;;17.45;7.50;;;;;;;-6.21;48.36;101920.91;5030739;28;20124;-56
2020/12/10 01:48:58;;;;;;;21.30;8.90;;;;;;;-6.07;47.67;101944.69;5028589;28;20044;-60
2020/12/10 01:51:24;;;;;;;21.77;7.65;;;;;;;-5.84;47.84;101982.53;5030333;28;20038;-52
2020/12/10 01:53:49;;;;;;;19.80;8.40;;;;;;;-5.72;47.52;101974.97;5022235;28;20390;-55
2020/12/10 01:56:16;;;;;;;15.40;7.30;;;;;;;-5.75;47.28;101974.91;5029845;28;20119;-56
2020/12/10 01:58:42;;;;;;;16.35;7.63;;;;;;;-5.88;47.60;101971.16;5030111;28;20099;-51
2020/12/10 02:01:07;;;;;;;16.88;7.28;;;;;;;-5.98;48.10;101963.97;5030313;28;20045;-55
2020/12/10 02:03:33;;;;;;;17.30;7.75;;;;;;;-5.91;48.22;101976.28;5023855;28;20045;-52
2020/12/10 02:05:59;;;;;;;20.17;7.75;;;;;;;-6.03;48.21;101976.94;5024504;28;20040;-51
2020/12/10 02:08:24;;;;;;;15.68;7.53;;;;;;;-5.97;47.64;101961.41;5043393;28;20049;-53
2020/12/10 02:10:49;;;;;;;19.52;8.27;;;;;;;-6.04;47.54;101959.50;5033155;28;20148;-55
2020/12/10 02:13:15;;;;;;;14.40;5.97;;;;;;;-5.93;47.68;101973.66;5030893;28;20037;-57
2020/12/10 02:15:49;;;;;;;22.50;7.93;;;;;;;-5.96;47.69;101986.63;5029758;28;20528;-57
2020/12/10 02:18:15;;;;;;;14.15;7.40;;;;;;;-5.80;47.20;101981.75;5030146;28;20041;-57
2020/12/10 02:20:41;;;;;;;18.35;7.70;;;;;;;-5.95;47.19;101959.72;5029902;28;20095;-55
2020/12/10 02:23:08;;;;;;;17.45;7.68;;;;;;;-5.93;47.42;101972.75;5027997;28;20037;-60
2020/12/10 02:25:35;;;;;;;15.10;6.20;;;;;;;-5.92;47.12;101970.19;5024904;28;20038;-55
2020/12/10 02:28:06;;;;;;;14.70;7.57;;;;;;;-6.02;47.30;101977.81;5029246;28;20041;-52
2020/12/10 02:30:32;;;;;;;20.65;8.00;;;;;;;-6.06;47.46;101961.22;5029558;28;20030;-50
2020/12/10 02:33:05;;;;;;;20.45;8.32;;;;;;;-6.00;47.13;101979.59;5031461;28;20037;-53
2020/12/10 02:35:31;;;;;;;19.95;7.55;;;;;;;-5.96;47.19;101978.81;5023093;28;20390;-52
2020/12/10 02:37:59;;;;;;;17.40;7.78;;;;;;;-6.01;47.33;101980.47;5027342;28;20068;-54
2020/12/10 02:40:28;;;;;;;21.10;8.73;;;;;;;-6.11;47.49;101965.44;5042525;28;20041;-52
2020/12/10 02:42:56;;;;;;;17.02;7.72;;;;;;;-6.14;47.72;101981.91;5031724;28;20041;-52
2020/12/10 02:45:22;;;;;;;17.23;8.00;;;;;;;-6.59;47.16;101876.59;5024470;28;20030;-52
2020/12/10 02:47:47;;;;;;;18.90;7.88;;;;;;;-6.15;47.41;101964.47;5021034;28;20037;-56
2020/12/10 02:50:14;;;;;;;21.65;8.15;;;;;;;-6.18;47.54;101961.81;5041074;28;20587;-56
2020/12/10 02:52:39;;;;;;;17.73;7.68;;;;;;;-6.43;47.31;101924.75;5036673;28;20065;-56
2020/12/10 02:55:05;;;;;;;17.48;8.00;;;;;;;-6.15;46.88;101945.38;5033130;28;20473;-55
2020/12/10 02:57:31;;;;;;;15.52;6.72;;;;;;;-6.06;46.93;101969.03;5031585;28;20054;-54
2020/12/10 02:59:56;;;;;;;19.58;8.50;;;;;;;-6.16;46.88;101959.25;5043069;28;20127;-54
2020/12/10 03:02:22;;;;;;;17.63;8.10;;;;;;;-6.20;47.11;101961.78;5040255;28;20033;-52
2020/12/10 03:04:48;;;;;;;22.13;8.40;;;;;;;-6.21;47.54;101967.84;5049785;28;20048;-58
2020/12/10 03:07:14;;;;;;;18.13;8.73;;;;;;;-6.35;47.66;101972.75;5036556;28;20029;-61
2020/12/10 03:09:40;;;;;;;16.60;8.23;;;;;;;-6.36;47.69;101968.38;5041608;28;20075;-55
2020/12/10 03:12:06;;;;;;;19.95;8.05;;;;;;;-6.35;47.66;101964.03;5042590;28;20052;-52
2020/12/10 03:14:31;;;;;;;16.65;7.38;;;;;;;-6.39;47.16;101930.91;5042716;28;20468;-55
2020/12/10 03:16:57;;;;;;;14.43;7.10;;;;;;;-6.24;47.26;101966.88;5049877;28;20037;-54
2020/12/10 03:19:22;;;;;;;17.92;7.72;;;;;;;-6.64;47.51;101893.84;5037061;28;20037;-55
2020/12/10 03:21:48;;;;;;;16.98;7.63;;;;;;;-6.38;47.65;101940.50;5044800;28;20043;-57
2020/12/10 03:24:13;;;;;;;17.65;7.57;;;;;;;-6.20;47.46;101951.38;5044777;28;20102;-57
2020/12/10 03:26:39;;;;;;;22.80;8.85;;;;;;;-6.20;47.19;101946.16;5037867;28;20037;-58
2020/12/10 03:29:08;;;;;;;13.10;6.38;;;;;;;-6.59;47.25;101907.88;5047384;28;20034;-59
2020/12/10 03:31:36;;;;;;;19.80;7.78;;;;;;;-6.25;47.18;101960.81;5039479;28;20041;-55
2020/12/10 03:34:02;;;;;;;18.50;8.02;;;;;;;-6.50;47.53;101922.84;5041877;28;20112;-56
2020/12/10 03:36:45;;;;;;;18.95;7.40;;;;;;;-6.50;48.24;101947.19;5046679;28;20591;-56
2020/12/10 03:39:10;;;;;;;19.13;7.50;;;;;;;-6.91;47.70;101871.50;5034975;28;20056;-64
2020/12/10 03:41:36;;;;;;;18.63;7.35;;;;;;;-6.81;48.20;101907.34;5037839;28;20076;-57
2020/12/10 03:44:01;;;;;;;16.83;6.88;;;;;;;-6.88;47.82;101868.06;5042821;28;20089;-57
2020/12/10 03:46:27;;;;;;;17.15;7.75;;;;;;;-6.30;47.61;101951.97;5038652;28;20033;-58
2020/12/10 03:48:52;;;;;;;15.90;7.53;;;;;;;-6.32;47.47;101951.06;5046436;28;20029;-58
2020/12/10 03:51:17;;;;;;;19.48;7.97;;;;;;;-6.34;47.56;101947.53;5038634;28;20411;-56
2020/12/10 03:53:43;;;;;;;19.33;8.27;;;;;;;-6.39;47.78;101950.06;5041512;28;20488;-56
2020/12/10 03:56:08;;;;;;;16.42;7.32;;;;;;;-6.27;47.36;101957.28;5043541;28;20045;-58
2020/12/10 03:58:34;;;;;;;16.45;7.13;;;;;;;-6.27;47.56;101946.88;5037556;28;20053;-58
2020/12/10 04:00:59;;;;;;;15.65;7.38;;;;;;;-6.26;47.36;101950.34;5032741;28;20452;-57
2020/12/10 04:03:25;;;;;;;15.75;6.72;;;;;;;-6.63;47.67;101899.13;5045536;28;20041;-51
2020/12/10 04:05:50;;;;;;;14.07;6.85;;;;;;;-6.26;47.78;101942.50;5040728;28;20507;-58
2020/12/10 04:08:16;;;;;;;15.55;7.13;;;;;;;-6.27;47.67;101941.66;5039599;28;20033;-56
2020/12/10 04:10:41;;;;;;;17.95;7.20;;;;;;;-6.33;48.04;101949.31;5031131;28;20123;-57
2020/12/10 04:13:07;;;;;;;17.10;7.00;;;;;;;-6.44;48.14;101940.38;5036790;28;20115;-56
2020/12/10 04:15:32;;;;;;;17.90;7.43;;;;;;;-6.90;47.96;101839.41;5043933;28;20029;-57
2020/12/10 04:17:57;;;;;;;19.98;7.72;;;;;;;-6.29;47.47;101938.09;5039972;28;20033;-55
2020/12/10 04:20:23;;;;;;;15.13;7.50;;;;;;;-6.32;47.83;101942.38;5038099;28;20132;-53
2020/12/10 04:22:48;;;;;;;15.90;6.82;;;;;;;-6.28;47.58;101931.16;5037971;28;20091;-53
2020/12/10 04:25:14;;;;;;;16.38;7.53;;;;;;;-6.35;47.54;101936.25;5046638;28;20037;-58
2020/12/10 04:27:40;;;;;;;16.27;7.15;;;;;;;-6.51;48.04;101914.16;5039289;28;20036;-55
2020/12/10 04:30:05;;;;;;;17.55;7.20;;;;;;;-6.38;48.02;101950.94;5040239;28;20098;-53
2020/12/10 04:32:31;;;;;;;17.58;7.85;;;;;;;-6.42;48.11;101930.84;5034136;28;20029;-55
2020/12/10 04:34:56;;;;;;;14.95;7.20;;;;;;;-6.32;47.96;101945.84;5042998;28;20139;-54
2020/12/10 04:37:22;;;;;;;20.08;7.72;;;;;;;-6.31;47.54;101929.34;5046747;28;20029;-52
2020/12/10 04:39:50;;;;;;;17.10;7.28;;;;;;;-6.82;47.59;101858.69;5022135;28;20061;-56
2020/12/10 04:42:17;;;;;;;16.05;7.05;;;;;;;-6.62;47.72;101915.63;5038274;28;20064;-52
2020/12/10 04:44:45;;;;;;;16.17;7.75;;;;;;;-6.57;48.52;101949.59;5047496;28;20040;-60
2020/12/10 04:47:12;;;;;;;14.07;6.40;;;;;;;-6.64;47.79;101870.41;5033932;28;20400;-52
2020/12/10 04:49:39;;;;;;;16.33;6.43;;;;;;;-6.45;47.45;101916.00;5040695;28;20128;-57
2020/12/10 04:52:06;;;;;;;18.05;7.40;;;;;;;-6.38;47.81;101953.53;5037365;28;20056;-57
2020/12/10 04:54:33;;;;;;;16.10;7.90;;;;;;;-6.28;47.67;101941.59;5028151;28;20056;-56
2020/12/10 04:56:58;;;;;;;18.98;7.75;;;;;;;-6.36;47.76;101934.50;5033093;28;20058;-54
2020/12/10 04:59:24;;;;;;;14.38;6.93;;;;;;;-6.38;47.93;101941.41;5031027;28;20140;-54
2020/12/10 05:01:49;;;;;;;15.95;6.90;;;;;;;-6.43;48.40;101942.13;5030934;28;20071;-51
2020/12/10 05:04:15;;;;;;;17.42;7.07;;;;;;;-6.79;47.86;101866.56;5030388;28;20044;-57
2020/12/10 05:06:52;;;;;;;18.45;7.28;;;;;;;-6.38;48.02;101943.09;5031438;28;20064;-54
2020/12/10 05:09:18;;;;;;;19.20;8.20;;;;;;;-6.50;47.81;101934.16;5031063;28;20036;-52
2020/12/10 05:11:44;;;;;;;15.95;7.30;;;;;;;-6.28;47.58;101942.47;5017482;28;20029;-58
2020/12/10 05:14:10;;;;;;;17.05;5.97;;;;;;;-6.20;47.64;101943.53;5030101;28;20072;-55
2020/12/10 05:16:35;;;;;;;21.67;8.10;;;;;;;-6.29;47.70;101943.31;5030773;28;20064;-60
2020/12/10 05:19:20;;;;;;;17.33;7.88;;;;;;;-6.33;47.51;101931.06;5030928;28;20370;-60
2020/12/10 05:22:06;;;;;;;14.50;7.63;;;;;;;-6.35;47.58;101943.16;5050910;28;20118;-62
2020/12/10 05:24:33;;;;;;;18.52;7.88;;;;;;;-6.34;47.86;101944.94;5046849;28;20033;-59
2020/12/10 05:27:20;;;;;;;21.60;8.10;;;;;;;-6.78;47.96;101860.53;5030851;28;20118;-61
2020/12/10 05:29:46;;;;;;;18.10;7.45;;;;;;;-6.27;47.77;101933.81;5030796;28;20548;-65
2020/12/10 05:32:48;;;;;;;19.85;8.25;;;;;;;-6.30;47.90;101936.34;5030350;28;20113;-54
2020/12/10 05:35:18;;;;;;;15.02;6.88;;;;;;;-6.36;47.87;101941.41;5029529;28;20033;-59
2020/12/10 05:37:44;;;;;;;16.10;7.40;;;;;;;-6.30;47.74;101941.53;5030231;28;20076;-63
2020/12/10 05:40:10;;;;;;;16.73;7.75;;;;;;;-6.91;47.82;101837.66;5030314;28;20029;-63
2020/12/10 05:42:46;;;;;;;16.27;6.95;;;;;;;-6.31;48.04;101950.22;5030296;28;20058;-62
2020/12/10 05:45:20;;;;;;;18.55;7.65;;;;;;;-6.15;47.84;101955.78;5030053;28;20033;-61
2020/12/10 05:47:58;;;;;;;15.60;7.78;;;;;;;-6.15;47.85;101953.19;5030292;28;20044;-59
2020/12/10 05:50:29;;;;;;;16.95;7.13;;;;;;;-6.06;47.19;101942.94;5029785;28;20061;-60
2020/12/10 05:53:07;;;;;;;17.02;7.78;;;;;;;-6.07;47.64;101952.53;5029981;28;20033;-58
2020/12/10 05:55:35;;;;;;;12.38;5.75;;;;;;;-6.10;47.28;101912.44;5029595;28;20025;-55
2020/12/10 05:58:02;;;;;;;18.63;7.47;;;;;;;-6.11;47.50;101931.53;5030134;28;20057;-55
2020/12/10 06:00:28;;;;;;;21.42;8.35;;;;;;;-6.08;47.46;101950.75;5031324;28;20049;-56
2020/12/10 06:02:58;;;;;;;16.50;7.28;;;;;;;-6.45;47.47;101871.69;5032062;28;20040;-55
2020/12/10 06:05:24;;;;;;;21.23;8.18;;;;;;;-6.02;47.42;101941.31;5050892;28;20120;-61
2020/12/10 06:08:07;;;;;;;18.48;7.70;;;;;;;-5.94;47.54;101955.34;5029869;28;20041;-52
2020/12/10 06:10:39;;;;;;;16.70;7.35;;;;;;;-6.04;47.21;101954.28;5029829;28;20065;-57
2020/12/10 06:13:06;;;;;;;17.25;7.85;;;;;;;-5.92;46.97;101965.00;5029589;28;20435;-59
2020/12/10 06:15:33;;;;;;;23.90;8.30;;;;;;;-5.96;47.64;101972.69;5028535;28;20029;-54
2020/12/10 06:18:07;;;;;;;15.05;7.50;;;;;;;-6.08;47.30;101945.53;5029432;28;20107;-52
2020/12/10 06:20:34;;;;;;;20.27;8.90;;;;;;;-5.88;47.16;101965.94;5023461;28;20110;-55
2020/12/10 06:23:35;;;;;;;18.17;7.30;;;;;;;-5.75;47.20;101964.47;5029888;28;20125;-57
2020/12/10 06:26:22;;;;;;;16.60;8.73;;;;;;;-5.74;47.14;101954.91;5027091;28;20056;-55
2020/12/10 06:28:48;;;;;;;26.45;8.63;;;;;;;-5.76;46.87;101952.28;5029636;28;20060;-53
2020/12/10 06:31:13;;;;;;;15.18;7.43;;;;;;;-5.78;47.04;101936.59;5029761;28;20521;-59
2020/12/10 06:33:44;;;;;;;34.08;9.23;;;;;;;-5.60;46.93;101957.81;5029529;28;20033;-56
2020/12/10 06:36:21;;;;;;;20.70;8.93;;;;;;;-5.45;46.66;101958.13;5024086;28;20045;-61
2020/12/10 06:38:48;;;;;;;19.10;9.07;;;;;;;-5.31;46.53;101947.06;5027521;28;20140;-58
2020/12/10 06:41:14;;;;;;;18.83;8.27;;;;;;;-4.62;46.82;101950.94;5027259;28;20088;-57
2020/12/10 06:43:39;;;;;;;22.08;9.35;;;;;;;-2.34;43.78;101930.88;5027488;28;20030;-54
2020/12/10 06:46:06;;;;;;;22.67;8.25;;;;;;;0.23;39.23;101927.78;5026465;28;20443;-60
2020/12/10 06:48:48;;;;;;;19.90;9.38;;;;;;;2.49;35.04;101924.16;5027204;28;20052;-56
2020/12/10 06:51:18;;;;;;;20.02;9.05;;;;;;;4.32;32.83;101933.50;5028297;28;20053;-55
2020/12/10 06:53:58;;;;;;;17.17;9.48;;;;;;;5.38;31.06;101909.91;5030017;28;20033;-56
2020/12/10 06:56:24;;;;;;;19.10;9.82;;;;;;;5.17;31.06;101914.84;5030647;28;20060;-57
2020/12/10 06:58:52;;;;;;;18.00;9.43;;;;;;;4.82;30.75;101913.88;5029453;28;20037;-60
2020/12/10 07:01:39;;;;;;;19.67;10.35;;;;;;;5.20;29.52;101906.78;5029097;28;20047;-57
2020/12/10 07:07:13;;;;;;;22.52;10.00;;;;;;;7.26;26.71;101893.84;5028549;28;20567;-58
2020/12/10 07:09:52;;;;;;;19.35;9.85;;;;;;;8.03;25.18;101907.16;5029346;28;20038;-59
2020/12/10 07:12:19;;;;;;;20.27;10.35;;;;;;;8.40;24.40;101837.31;5029357;28;20525;-61
2020/12/10 07:14:44;;;;;;;22.83;10.48;;;;;;;9.23;24.02;101894.56;5029411;28;20033;-61
2020/12/10 07:17:10;;;;;;;19.88;10.50;;;;;;;9.38;23.16;101893.03;5028603;28;20427;-59
2020/12/10 07:19:35;;;;;;;18.33;10.15;;;;;;;8.50;22.71;101870.75;5028953;28;20044;-55
2020/12/10 07:22:01;;;;;;;22.63;11.07;;;;;;;7.54;23.96;101915.09;5024154;28;20501;-58
2020/12/10 07:24:26;;;;;;;22.70;11.00;;;;;;;6.02;25.53;101910.00;5030336;28;20090;-56
2020/12/10 07:26:53;;;;;;;22.52;11.27;;;;;;;4.67;27.26;101923.03;5034964;28;20059;-56
2020/12/10 07:29:18;;;;;;;24.45;11.60;;;;;;;3.35;28.09;101930.88;5032881;28;20030;-60
2020/12/10 07:31:44;;;;;;;24.70;10.13;;;;;;;2.31;29.57;101920.00;5030561;28;20036;-57
2020/12/10 07:34:11;;;;;;;25.52;11.73;;;;;;;1.26;30.46;101928.09;5027209;28;20034;-58
2020/12/10 07:36:45;;;;;;;25.83;11.27;;;;;;;0.23;32.05;101948.88;5026938;28;20029;-56
2020/12/10 07:39:13;;;;;;;24.55;11.18;;;;;;;-0.70;33.40;101935.84;5029755;28;20119;-55
2020/12/10 07:41:38;;;;;;;27.33;11.90;;;;;;;-1.63;35.39;101954.91;5030812;28;20029;-58
2020/12/10 07:44:04;;;;;;;22.35;11.57;;;;;;;-2.25;35.98;101944.06;5031312;28;20029;-57
2020/12/10 07:46:36;;;;;;;25.15;11.35;;;;;;;-2.64;37.41;101959.50;5031306;28;20091;-56
2020/12/10 07:49:02;;;;;;;33.45;11.38;;;;;;;-2.82;37.81;101951.47;5030563;28;20037;-59
2020/12/10 07:51:29;;;;;;;25.75;11.27;;;;;;;-2.90;38.21;101954.91;5030979;28;20038;-57
2020/12/10 07:54:01;;;;;;;28.13;11.05;;;;;;;-3.03;38.88;101959.13;5028506;28;20029;-57
2020/12/10 07:56:29;;;;;;;21.38;10.85;;;;;;;-3.14;38.59;101945.03;5029266;28;20045;-54
2020/12/10 07:59:11;;;;;;;25.60;11.23;;;;;;;-3.19;39.00;101938.88;5031511;28;20045;-56
2020/12/10 08:01:56;;;;;;;27.60;11.68;;;;;;;-3.19;39.48;101934.53;5030655;28;20354;-54
2020/12/10 08:04:23;;;;;;;29.77;12.35;;;;;;;-3.29;39.49;101943.13;5031672;28;20037;-53
2020/12/10 08:06:50;;;;;;;28.83;11.25;;;;;;;-3.22;39.32;101920.50;5031599;28;20493;-53
2020/12/10 08:09:17;;;;;;;25.63;12.50;;;;;;;-3.03;38.85;101917.22;5031987;28;20033;-54
2020/12/10 08:11:56;;;;;;;34.75;11.98;;;;;;;-3.24;39.34;101901.25;5030544;28;20026;-52
2020/12/10 08:14:28;;;;;;;29.75;12.77;;;;;;;-3.24;39.43;101911.75;5031247;28;20124;-54
2020/12/10 08:16:55;;;;;;;31.10;11.75;;;;;;;-3.31;39.23;101908.19;5036063;28;20092;-55
2020/12/10 08:19:26;;;;;;;31.08;12.43;;;;;;;-3.34;40.21;101916.00;5031503;28;20119;-56
2020/12/10 08:21:53;;;;;;;19.92;10.95;;;;;;;-3.26;39.63;101903.00;5030926;28;20033;-57
2020/12/10 08:24:42;;;;;;;28.08;12.00;;;;;;;-3.13;39.82;101918.00;5039501;28;20048;-55
2020/12/10 08:27:12;;;;;;;27.92;12.07;;;;;;;-3.12;39.67;101900.50;5031391;28;20072;-57
2020/12/10 08:29:38;;;;;;;25.80;12.70;;;;;;;-2.96;39.31;101907.66;5033936;28;20090;-51
2020/12/10 08:32:14;;;;;;;35.78;12.77;;;;;;;-2.77;39.26;101913.94;5030147;28;20501;-50
2020/12/10 08:34:40;;;;;;;26.33;11.77;;;;;;;-2.72;38.81;101910.47;5031326;28;20045;-56
2020/12/10 08:37:08;;;;;;;32.80;11.57;;;;;;;-2.63;38.94;101892.22;5030604;28;20103;-52
2020/12/10 08:39:38;;;;;;;31.25;12.90;;;;;;;-2.84;38.54;101874.53;5030743;28;20719;-50
2020/12/10 08:42:04;;;;;;;37.83;12.73;;;;;;;-2.79;38.60;101897.31;5030657;28;20041;-55
2020/12/10 08:44:51;;;;;;;26.50;11.95;;;;;;;-2.78;38.92;101888.59;5023815;28;20048;-51
2020/12/10 08:47:30;;;;;;;31.20;12.45;;;;;;;-2.77;39.63;101882.47;5031102;28;20112;-55
2020/12/10 08:50:27;;;;;;;32.70;12.85;;;;;;;-2.66;39.35;101872.06;5029168;28;20119;-57
2020/12/10 08:52:59;;;;;;;33.03;13.80;;;;;;;-2.67;38.44;101874.66;5031878;28;20092;-59
2020/12/10 08:55:25;;;;;;;43.05;14.20;;;;;;;-2.84;39.10;101879.78;5033891;28;20049;-55
2020/12/10 08:57:51;;;;;;;30.13;13.68;;;;;;;-3.29;39.35;101799.03;5032183;28;20412;-54
2020/12/10 09:00:16;;;;;;;26.70;12.65;;;;;;;-2.82;39.56;101871.06;5028725;28;20037;-50
2020/12/10 09:02:42;;;;;;;27.20;13.20;;;;;;;-2.84;39.25;101880.69;5026578;28;20041;-56
2020/12/10 09:05:08;;;;;;;28.77;13.75;;;;;;;-3.07;39.65;101852.53;5030313;28;20037;-53
2020/12/10 09:07:34;;;;;;;31.35;12.77;;;;;;;-2.98;39.36;101856.09;5042955;28;20137;-54
2020/12/10 09:10:03;;;;;;;30.08;13.20;;;;;;;-2.91;39.20;101863.13;5029818;28;20041;-51
2020/12/10 09:12:29;;;;;;;30.80;11.90;;;;;;;-2.86;39.49;101866.69;5029601;28;20035;-54
2020/12/10 09:14:54;;;;;;;30.13;13.00;;;;;;;-2.98;39.93;101872.69;5026476;28;20037;-53
2020/12/10 09:17:20;;;;;;;26.05;12.40;;;;;;;-3.03;39.59;101867.41;5029915;28;20397;-53
2020/12/10 09:19:45;;;;;;;31.70;12.50;;;;;;;-3.05;39.90;101858.66;5027672;28;20069;-49
2020/12/10 09:22:11;;;;;;;31.02;12.43;;;;;;;-3.17;39.50;101874.25;5030441;28;20049;-52
2020/12/10 09:24:37;;;;;;;30.88;11.68;;;;;;;-3.10;40.14;101854.22;5029987;28;20048;-55
2020/12/10 09:27:06;;;;;;;33.63;12.73;;;;;;;-3.24;40.25;101854.09;5029831;28;20041;-52
2020/12/10 09:29:32;;;;;;;25.20;11.80;;;;;;;-3.33;40.50;101855.78;5027284;28;20068;-51
2020/12/10 09:31:58;;;;;;;28.40;12.50;;;;;;;-3.68;40.54;101811.78;5024139;28;20052;-50
2020/12/10 09:34:23;;;;;;;33.38;12.18;;;;;;;-3.31;40.47;101874.13;5028835;28;20049;-48
2020/12/10 09:36:49;;;;;;;26.90;12.52;;;;;;;-3.42;40.69;101849.56;5024664;28;20116;-54
2020/12/10 09:39:14;;;;;;;31.02;12.85;;;;;;;-3.82;40.38;101779.34;5028058;28;20144;-53
2020/12/10 09:41:43;;;;;;;26.50;12.68;;;;;;;-3.30;39.99;101859.28;5027195;28;20029;-49
2020/12/10 09:44:08;;;;;;;33.75;12.55;;;;;;;-3.26;40.33;101876.78;5042863;28;20048;-51
2020/12/10 09:46:34;;;;;;;31.65;13.00;;;;;;;-3.25;40.21;101873.31;5030062;28;20045;-54
2020/12/10 09:48:59;;;;;;;25.80;12.40;;;;;;;-3.32;40.72;101862.78;5024436;28;20087;-52
2020/12/10 09:51:28;;;;;;;31.60;12.52;;;;;;;-3.24;40.56;101857.63;5028506;28;20041;-53
2020/12/10 09:54:04;;;;;;;32.90;12.70;;;;;;;-3.32;40.30;101847.06;5022043;28;20584;-57
2020/12/10 09:56:55;;;;;;;35.15;13.43;;;;;;;-3.08;40.59;101863.88;5028256;28;20483;-56
2020/12/10 09:59:20;;;;;;;29.00;12.90;;;;;;;-3.20;40.17;101834.94;5028522;28;20037;-56
2020/12/10 10:01:46;;;;;;;28.05;13.85;;;;;;;-3.37;40.43;101832.16;5030625;28;20039;-56
2020/12/10 10:04:11;;;;;;;29.25;13.85;;;;;;;-3.24;40.77;101846.25;5029889;28;20559;-59
2020/12/10 10:06:37;;;;;;;36.65;12.73;;;;;;;-3.37;40.11;101812.09;5028011;28;20099;-56
2020/12/10 10:09:04;;;;;;;27.73;13.68;;;;;;;-3.16;39.99;101849.81;5023775;28;20129;-56
2020/12/10 10:11:30;;;;;;;26.65;13.10;;;;;;;-3.19;40.63;101829.72;5022027;28;20145;-54
2020/12/10 10:13:55;;;;;;;37.13;13.90;;;;;;;-3.20;40.52;101819.22;5029721;28;20053;-53
2020/12/10 10:16:27;;;;;;;38.03;14.52;;;;;;;-3.19;40.88;101832.34;5027111;28;20731;-55
2020/12/10 10:18:52;;;;;;;39.55;15.27;;;;;;;-3.20;40.23;101825.34;5027212;28;20033;-55
2020/12/10 10:21:18;;;;;;;28.25;13.30;;;;;;;-3.16;40.40;101834.09;5026202;28;20042;-56
2020/12/10 10:23:44;;;;;;;32.38;13.57;;;;;;;-3.23;40.31;101822.69;5034503;28;20047;-54
2020/12/10 10:26:09;;;;;;;39.47;14.38;;;;;;;-3.31;40.60;101806.00;5028856;28;20032;-58
2020/12/10 10:28:35;;;;;;;30.95;15.23;;;;;;;-3.17;40.52;101814.88;5029029;28;20083;-54
2020/12/10 10:31:00;;;;;;;31.58;12.73;;;;;;;-3.00;40.79;101824.63;5025797;28;20041;-53
2020/12/10 10:33:26;;;;;;;30.27;12.68;;;;;;;-2.88;40.22;101836.97;5030171;28;20116;-51
2020/12/10 10:35:53;;;;;;;36.13;14.90;;;;;;;-2.95;40.45;101817.69;5028250;28;20041;-58
2020/12/10 10:38:20;;;;;;;31.08;13.52;;;;;;;-2.89;40.12;101817.72;5028791;28;20533;-53
2020/12/10 10:40:45;;;;;;;44.97;13.82;;;;;;;-2.92;40.21;101822.03;5037547;28;20041;-50
2020/12/10 10:43:11;;;;;;;38.45;14.05;;;;;;;-2.92;40.52;101837.78;5026789;28;20029;-54
2020/12/10 10:45:36;;;;;;;34.35;13.90;;;;;;;-2.95;40.20;101822.91;5021671;28;20164;-54
2020/12/10 10:48:02;;;;;;;30.45;13.75;;;;;;;-2.84;39.99;101817.75;5027657;28;20041;-53
2020/12/10 10:50:27;;;;;;;33.45;12.88;;;;;;;-2.83;40.60;101810.75;5014784;28;20045;-50
2020/12/10 10:52:53;;;;;;;35.13;13.93;;;;;;;-2.92;40.62;101804.59;5026789;28;20052;-52
2020/12/10 10:55:18;;;;;;;31.55;13.73;;;;;;;-2.91;40.30;101787.09;5044369;28;20025;-54
2020/12/10 10:57:44;;;;;;;33.08;13.63;;;;;;;-2.91;40.21;101780.13;5029798;28;20131;-52
2020/12/10 11:00:09;;;;;;;28.60;13.35;;;;;;;-2.85;40.78;101800.28;5028474;28;20259;-56
2020/12/10 11:02:35;;;;;;;35.17;14.20;;;;;;;-2.86;40.38;101788.03;5032472;28;20485;-54
2020/12/10 11:05:00;;;;;;;35.20;13.38;;;;;;;-2.75;40.67;101788.09;5022805;28;20033;-54
2020/12/10 11:07:26;;;;;;;26.15;12.55;;;;;;;-2.80;40.17;101761.84;5027803;28;20041;-59
2020/12/10 11:09:52;;;;;;;32.88;12.13;;;;;;;-2.58;40.34;101798.69;5034266;28;20497;-56
2020/12/10 11:12:17;;;;;;;24.83;12.25;;;;;;;-2.63;40.34;101793.41;5028841;28;20034;-53
2020/12/10 11:14:43;;;;;;;31.42;12.65;;;;;;;-2.65;40.58;101802.16;5029756;28;20069;-54
2020/12/10 11:17:08;;;;;;;36.20;12.70;;;;;;;-2.62;40.39;101791.69;5030203;28;20038;-55
2020/12/10 11:19:34;;;;;;;25.73;12.15;;;;;;;-2.62;39.99;101783.81;5016647;28;20153;-51
2020/12/10 11:22:00;;;;;;;29.80;12.38;;;;;;;-2.69;40.36;101780.28;5031885;28;20061;-57